Terminal Aerodrome Forecast
Issued by NWS

Home | Current Version | Previous Version | Text Only | Print | Product List | Glossary On
Versions: 1 2 3 4 5 6 7 8 9 10 11 12 13 14 15 16 17 18
000
FTUS45 KTFX 280533
TAFHVR
TAF
KHVR 280533Z 2806/2906 28011KT P6SM -RA SCT012 BKN020
      TEMPO 2806/2810 3SM RA BR BKN012
     FM281000 26022G32KT P6SM -RA SCT015 BKN025
     FM281600 30025G35KT P6SM SCT050 BKN120
     FM282100 30015KT P6SM SCT090 BKN150=

USA.gov is the U.S. government's official web portal to all federal, state and local government web resources and services.